Time;durP1;ratioP1;P1;durP2;ratioP2;P2;SDS_P1;SDS_P2;PMS_P1;PMS_P2;Temp;Humidity;BMP_temperature;BMP_pressure;BME280_temperature;BME280_humidity;BME280_pressure;Samples;Min_cycle;Max_cycle;Signal;HPM_P1;HPM_P2
2021/03/19 00:00:19;;;;;;;13.23;2.65;;;17.60;99.90;;;;;;4964172;28;20027;-71
2021/03/19 00:02:45;;;;;;;;;;;17.70;99.90;;;;;;4948250;28;20082;-73
2021/03/19 00:05:15;;;;;;;17.13;3.47;;;18.30;99.90;;;;;;4964624;28;19945;-72
2021/03/19 00:07:56;;;;;;;13.52;3.83;;;18.00;99.90;;;;;;4965251;28;20035;-72
2021/03/19 00:10:25;;;;;;;11.75;3.05;;;17.70;99.90;;;;;;4965322;28;20027;-73
2021/03/19 00:12:53;;;;;;;12.70;3.00;;;17.40;99.90;;;;;;4963015;28;20051;-74
2021/03/19 00:15:25;;;;;;;11.27;2.80;;;17.50;99.90;;;;;;4965537;28;20109;-71
2021/03/19 00:17:53;;;;;;;17.15;2.88;;;17.50;99.90;;;;;;4963925;28;20413;-74
2021/03/19 00:20:21;;;;;;;10.63;3.17;;;17.50;99.90;;;;;;4964404;28;20038;-72
2021/03/19 00:22:48;;;;;;;13.45;2.97;;;17.60;99.90;;;;;;4946968;28;20456;-71
2021/03/19 00:25:16;;;;;;;15.15;3.53;;;17.80;99.90;;;;;;4964929;28;20117;-72
2021/03/19 00:27:42;;;;;;;16.02;3.75;;;17.60;99.90;;;;;;4964374;28;20042;-70
2021/03/19 00:30:11;;;;;;;13.75;3.33;;;17.30;99.90;;;;;;4947057;28;20042;-73
2021/03/19 00:32:42;;;;;;;;;;;17.10;99.90;;;;;;4963842;28;20599;-71
2021/03/19 00:35:10;;;;;;;17.35;3.70;;;17.20;99.90;;;;;;4962480;28;20009;-73
2021/03/19 00:37:37;;;;;;;15.27;3.77;;;17.00;99.90;;;;;;4962938;28;20096;-72
2021/03/19 00:40:12;;;;;;;18.67;3.83;;;16.90;99.90;;;;;;4963012;28;20604;-70
2021/03/19 00:42:40;;;;;;;21.70;3.60;;;17.00;99.90;;;;;;4963534;28;20027;-72
2021/03/19 00:45:09;;;;;;;14.98;2.67;;;16.80;99.90;;;;;;4962253;28;20050;-76
2021/03/19 00:47:36;;;;;;;10.75;2.97;;;16.60;99.90;;;;;;4963958;28;20046;-73
2021/03/19 00:50:06;;;;;;;14.10;3.15;;;16.50;99.90;;;;;;4962992;28;20035;-72
2021/03/19 00:52:33;;;;;;;15.98;3.30;;;16.70;99.90;;;;;;4951432;28;20031;-73
2021/03/19 00:55:00;;;;;;;19.17;3.78;;;16.30;99.90;;;;;;4963100;28;20150;-73
2021/03/19 00:57:26;;;;;;;16.05;3.42;;;16.10;99.90;;;;;;4952338;28;20039;-73
2021/03/19 00:59:53;;;;;;;19.20;3.05;;;16.30;99.90;;;;;;4963128;28;20317;-75
2021/03/19 01:02:20;;;;;;;13.68;3.47;;;16.20;99.90;;;;;;4953201;28;20066;-75
2021/03/19 01:04:46;;;;;;;14.32;2.63;;;16.10;99.90;;;;;;4961724;28;20410;-73
2021/03/19 01:07:13;;;;;;;14.55;2.92;;;16.10;99.90;;;;;;4964291;28;20035;-72
2021/03/19 01:09:39;;;;;;;11.95;3.08;;;15.90;99.90;;;;;;4959300;28;20023;-73
2021/03/19 01:12:06;;;;;;;14.00;3.42;;;15.80;99.90;;;;;;4945796;28;20047;-73
2021/03/19 01:14:33;;;;;;;15.55;2.88;;;15.80;99.90;;;;;;4961162;28;20037;-73
2021/03/19 01:17:00;;;;;;;9.02;2.38;;;15.80;99.90;;;;;;4961028;28;20037;-75
2021/03/19 01:19:26;;;;;;;16.65;3.50;;;15.60;99.90;;;;;;4960134;28;20118;-71
2021/03/19 01:21:53;;;;;;;15.45;2.47;;;15.50;99.90;;;;;;4960731;28;20038;-72
2021/03/19 01:24:20;;;;;;;15.00;3.15;;;15.40;99.90;;;;;;4962177;28;20027;-72
2021/03/19 01:26:46;;;;;;;19.88;2.85;;;15.40;99.90;;;;;;4962389;28;20543;-72
2021/03/19 01:29:13;;;;;;;9.88;3.13;;;15.40;99.90;;;;;;4961623;28;20039;-71
2021/03/19 01:31:40;;;;;;;20.20;2.90;;;15.30;99.90;;;;;;4961235;28;20031;-71
2021/03/19 01:34:06;;;;;;;13.40;2.75;;;15.10;99.90;;;;;;4959812;28;20035;-72
2021/03/19 01:36:33;;;;;;;13.98;2.80;;;14.90;99.90;;;;;;4945385;28;20018;-71
2021/03/19 01:39:00;;;;;;;16.10;3.13;;;14.90;99.90;;;;;;4958259;28;20630;-73
2021/03/19 01:41:26;;;;;;;10.25;2.50;;;14.70;99.90;;;;;;4958666;28;20460;-73
2021/03/19 01:44:03;;;;;;;19.05;3.92;;;14.60;99.90;;;;;;4961691;28;20046;-74
2021/03/19 01:47:07;;;;;;;15.50;2.78;;;14.50;99.90;;;;;;4961595;28;20030;-73
2021/03/19 01:50:11;;;;;;;32.70;3.55;;;14.50;99.90;;;;;;4946332;28;20574;-72
2021/03/19 01:53:14;;;;;;;21.75;3.65;;;14.40;99.90;;;;;;4946290;28;20416;-74
2021/03/19 01:56:18;;;;;;;12.38;2.85;;;14.20;99.90;;;;;;4960572;28;20082;-72
2021/03/19 01:59:22;;;;;;;18.08;2.92;;;14.20;99.90;;;;;;4947047;28;20390;-72
2021/03/19 02:02:26;;;;;;;17.83;3.80;;;14.10;99.90;;;;;;4945511;28;20045;-73
2021/03/19 02:05:30;;;;;;;18.40;3.97;;;13.80;99.90;;;;;;4959108;28;20414;-71
2021/03/19 02:08:34;;;;;;;22.38;3.30;;;13.80;99.90;;;;;;4960316;28;20401;-73
2021/03/19 02:11:38;;;;;;;17.45;4.18;;;13.70;99.90;;;;;;4958622;28;20066;-71
2021/03/19 02:14:41;;;;;;;15.95;3.22;;;13.60;99.90;;;;;;4949579;28;20413;-73
2021/03/19 02:17:45;;;;;;;13.32;2.85;;;13.60;99.90;;;;;;4959795;28;20031;-74
2021/03/19 02:20:49;;;;;;;13.15;2.72;;;13.40;99.90;;;;;;4962191;28;20396;-72
2021/03/19 02:23:52;;;;;;;17.52;3.28;;;13.40;99.90;;;;;;4958791;28;20039;-71
2021/03/19 02:26:56;;;;;;;18.50;3.92;;;13.40;99.90;;;;;;4961739;28;20423;-73
2021/03/19 02:30:00;;;;;;;13.73;3.42;;;13.30;99.90;;;;;;4958516;28;20031;-71
2021/03/19 02:35:11;;;;;;;15.57;3.88;;;13.30;99.90;;;;;;5020113;23;20054;-72
2021/03/19 02:37:38;;;;;;;22.02;4.00;;;13.30;99.90;;;;;;4981356;28;20113;-71
2021/03/19 02:40:10;;;;;;;10.75;3.63;;;13.20;99.90;;;;;;4981497;28;20030;-71
2021/03/19 02:42:37;;;;;;;14.70;4.03;;;13.20;99.90;;;;;;4981476;28;20168;-72
2021/03/19 02:45:06;;;;;;;17.63;4.22;;;13.30;99.90;;;;;;4983238;28;20384;-70
2021/03/19 02:47:33;;;;;;;26.42;4.05;;;13.30;99.90;;;;;;4980214;28;20042;-72
2021/03/19 02:50:00;;;;;;;20.48;4.50;;;13.20;99.90;;;;;;4983958;28;20034;-72
2021/03/19 02:52:32;;;;;;;22.27;4.65;;;13.30;99.90;;;;;;4982035;28;20046;-70
2021/03/19 02:54:58;;;;;;;12.50;3.47;;;13.20;99.90;;;;;;4982538;28;20121;-70
2021/03/19 02:57:25;;;;;;;25.27;4.50;;;13.20;99.90;;;;;;4983684;28;20435;-70
2021/03/19 02:59:51;;;;;;;15.05;3.97;;;13.20;99.90;;;;;;4980753;28;20285;-71
2021/03/19 03:02:18;;;;;;;18.35;3.63;;;13.20;99.90;;;;;;4981592;28;20038;-70
2021/03/19 03:04:45;;;;;;;22.60;3.72;;;13.30;99.90;;;;;;4979684;28;20038;-69
2021/03/19 03:07:26;;;;;;;23.08;4.40;;;13.30;99.90;;;;;;4987247;28;20033;-71
2021/03/19 03:09:54;;;;;;;20.55;3.80;;;13.30;99.90;;;;;;4988712;28;20088;-72
2021/03/19 03:12:21;;;;;;;16.23;3.55;;;13.30;99.90;;;;;;4986843;28;20431;-71
2021/03/19 03:14:48;;;;;;;19.27;3.30;;;13.40;99.90;;;;;;4986908;28;20108;-71
2021/03/19 03:17:15;;;;;;;15.95;4.10;;;13.40;99.90;;;;;;4984827;28;20035;-71
2021/03/19 03:19:43;;;;;;;20.58;3.58;;;13.50;99.90;;;;;;4985205;28;20525;-70
2021/03/19 03:22:10;;;;;;;11.48;2.88;;;13.60;99.90;;;;;;4986667;28;20054;-69
2021/03/19 03:24:37;;;;;;;13.80;3.50;;;13.60;99.90;;;;;;4985220;28;20134;-71
2021/03/19 03:27:04;;;;;;;29.40;5.60;;;13.60;99.90;;;;;;4970419;28;20076;-70
2021/03/19 03:29:32;;;;;;;16.35;3.83;;;13.60;99.90;;;;;;4974395;28;20073;-70
2021/03/19 03:31:58;;;;;;;16.05;3.35;;;13.60;99.90;;;;;;4982707;28;20312;-70
2021/03/19 03:34:25;;;;;;;15.73;2.97;;;13.70;99.90;;;;;;4980023;28;20081;-69
2021/03/19 03:36:53;;;;;;;15.27;3.42;;;13.70;99.90;;;;;;4992518;28;20022;-70
2021/03/19 03:39:25;;;;;;;11.45;2.75;;;13.80;99.90;;;;;;4995835;28;20754;-72
2021/03/19 03:41:53;;;;;;;25.55;4.03;;;13.80;99.90;;;;;;4996074;28;20062;-70
2021/03/19 03:44:20;;;;;;;10.20;2.80;;;13.90;99.90;;;;;;4994451;28;20026;-70
2021/03/19 03:46:48;;;;;;;25.85;5.13;;;13.80;99.90;;;;;;4995809;28;20625;-69
2021/03/19 03:49:16;;;;;;;16.88;3.05;;;13.70;99.90;;;;;;4994373;28;20030;-69
2021/03/19 03:51:43;;;;;;;12.67;3.13;;;13.80;99.90;;;;;;4988784;28;20026;-70
2021/03/19 03:54:10;;;;;;;15.25;3.17;;;13.60;99.90;;;;;;4992624;28;20336;-71
2021/03/19 03:56:37;;;;;;;19.02;3.60;;;13.60;99.90;;;;;;4993936;28;20419;-69
2021/03/19 03:59:05;;;;;;;20.60;3.60;;;13.70;99.90;;;;;;4971064;28;20121;-69
2021/03/19 04:01:34;;;;;;;18.52;3.55;;;13.50;99.90;;;;;;4989699;28;20030;-71
2021/03/19 04:04:00;;;;;;;21.13;6.55;;;13.60;99.90;;;;;;4989118;28;20104;-69
2021/03/19 04:06:27;;;;;;;21.00;4.57;;;13.50;99.90;;;;;;4965804;28;20060;-69
2021/03/19 04:08:54;;;;;;;8.13;2.85;;;13.50;99.90;;;;;;4996045;28;20479;-70
2021/03/19 04:11:24;;;;;;;13.25;2.97;;;13.50;99.90;;;;;;4969301;28;20027;-70
2021/03/19 04:13:52;;;;;;;13.70;3.15;;;13.50;99.90;;;;;;4992827;28;20026;-69
2021/03/19 04:16:19;;;;;;;16.75;4.20;;;13.50;99.90;;;;;;4993458;28;20033;-70
2021/03/19 04:18:46;;;;;;;14.27;3.08;;;13.50;99.90;;;;;;4993464;28;20106;-70
2021/03/19 04:21:13;;;;;;;13.43;3.20;;;13.40;99.90;;;;;;4994517;28;20113;-70
2021/03/19 04:23:43;;;;;;;14.98;3.67;;;13.30;99.90;;;;;;4995049;28;20049;-69
2021/03/19 04:26:31;;;;;;;16.98;3.85;;;13.30;99.90;;;;;;4994725;28;20145;-70
2021/03/19 04:28:58;;;;;;;;;;;13.30;99.90;;;;;;4991036;28;20034;-69
2021/03/19 04:31:26;;;;;;;14.02;3.30;;;13.30;99.90;;;;;;4979333;28;19922;-71
2021/03/19 04:33:53;;;;;;;11.93;3.47;;;13.10;99.90;;;;;;4982405;28;20133;-69
2021/03/19 04:36:49;;;;;;;14.43;4.57;;;13.00;99.90;;;;;;4994501;28;20104;-69
2021/03/19 04:39:27;;;;;;;19.17;5.32;;;13.10;99.90;;;;;;4994028;28;20673;-70
2021/03/19 04:41:55;;;;;;;15.85;3.25;;;13.10;99.90;;;;;;4984675;28;20121;-69
2021/03/19 04:44:24;;;;;;;17.55;4.57;;;12.90;99.90;;;;;;4991068;28;20033;-70
2021/03/19 04:46:52;;;;;;;13.95;3.83;;;13.00;99.90;;;;;;4976136;28;20121;-70
2021/03/19 04:49:20;;;;;;;16.88;4.15;;;13.00;99.90;;;;;;4974721;28;20438;-70
2021/03/19 04:51:47;;;;;;;16.10;3.25;;;13.10;99.90;;;;;;4965611;28;20062;-71
2021/03/19 04:54:14;;;;;;;10.57;3.38;;;13.00;99.90;;;;;;4986600;28;20109;-70
2021/03/19 04:56:40;;;;;;;27.17;5.53;;;12.70;99.90;;;;;;4989959;28;20037;-70
2021/03/19 04:59:09;;;;;;;19.42;4.10;;;12.60;99.90;;;;;;4992761;28;20995;-69
2021/03/19 05:01:57;;;;;;;17.03;4.70;;;12.40;99.90;;;;;;4991738;28;20030;-70
2021/03/19 05:04:25;;;;;;;9.27;3.28;;;12.30;99.90;;;;;;4988165;28;20034;-69
2021/03/19 05:06:54;;;;;;;20.90;4.10;;;12.20;99.90;;;;;;4993076;28;20026;-70
2021/03/19 05:09:21;;;;;;;21.20;4.75;;;12.10;99.90;;;;;;4992913;28;20018;-70
2021/03/19 05:11:48;;;;;;;17.30;4.13;;;12.20;99.90;;;;;;4976054;28;20022;-70
2021/03/19 05:14:17;;;;;;;15.35;3.75;;;12.10;99.90;;;;;;4991969;28;20400;-70
2021/03/19 05:16:43;;;;;;;;;;;12.10;99.90;;;;;;4994174;28;20121;-69
2021/03/19 05:19:10;;;;;;;20.20;4.38;;;12.10;99.90;;;;;;4990420;28;19921;-71
2021/03/19 05:21:37;;;;;;;15.68;4.68;;;12.10;99.90;;;;;;4994297;28;20022;-71
2021/03/19 05:24:04;;;;;;;21.45;3.97;;;12.00;99.90;;;;;;4978680;28;20117;-70
2021/03/19 05:26:31;;;;;;;18.55;4.65;;;12.00;99.90;;;;;;4970415;28;20025;-70
2021/03/19 05:28:58;;;;;;;15.15;4.85;;;11.90;99.90;;;;;;4990591;28;20274;-71
2021/03/19 05:31:24;;;;;;;16.90;4.78;;;12.00;99.90;;;;;;4990862;28;20125;-71
2021/03/19 05:33:54;;;;;;;18.20;3.58;;;12.10;99.90;;;;;;4992531;28;20038;-69
2021/03/19 05:36:28;;;;;;;13.52;4.28;;;12.20;99.90;;;;;;4969383;28;20364;-69
2021/03/19 05:38:55;;;;;;;14.05;4.15;;;12.10;99.90;;;;;;5486846;23;20051;-70
2021/03/19 05:41:28;;;;;;;17.10;4.38;;;12.10;99.90;;;;;;4952272;28;20039;-69
2021/03/19 05:44:11;;;;;;;17.83;4.55;;;12.20;99.90;;;;;;4945845;28;21490;-70
2021/03/19 05:46:43;;;;;;;20.15;3.88;;;12.20;99.90;;;;;;4965512;28;20058;-69
2021/03/19 05:49:10;;;;;;;15.25;4.47;;;12.30;99.90;;;;;;4960529;28;20103;-70
2021/03/19 05:51:41;;;;;;;22.10;4.97;;;12.30;99.90;;;;;;4964909;28;20023;-70
2021/03/19 05:54:29;;;;;;;17.38;4.82;;;12.30;99.90;;;;;;4945721;28;20043;-71
2021/03/19 05:57:07;;;;;;;19.35;4.15;;;12.00;99.90;;;;;;4946311;28;20127;-70
2021/03/19 05:59:40;;;;;;;18.52;4.03;;;11.80;99.90;;;;;;4961721;28;20023;-80
2021/03/19 06:02:35;;;;;;;22.75;5.28;;;12.00;99.90;;;;;;4964954;28;20114;-79
2021/03/19 06:05:22;;;;;;;18.70;5.57;;;11.60;99.90;;;;;;4964495;28;20031;-74
2021/03/19 06:07:52;;;;;;;20.63;4.75;;;11.50;99.90;;;;;;4975366;28;20023;-76
2021/03/19 06:10:42;;;;;;;12.85;4.15;;;11.40;99.90;;;;;;4972909;28;20305;-74
2021/03/19 06:13:22;;;;;;;16.65;4.28;;;11.30;99.90;;;;;;4971785;28;20026;-75
2021/03/19 06:16:15;;;;;;;14.95;4.10;;;11.30;99.90;;;;;;4972436;28;20026;-74
2021/03/19 06:18:45;;;;;;;13.52;3.95;;;11.40;99.90;;;;;;4972891;28;20082;-73
2021/03/19 06:21:26;;;;;;;14.90;3.72;;;11.50;99.90;;;;;;4972418;28;20035;-73
2021/03/19 06:24:18;;;;;;;20.77;4.38;;;11.50;99.90;;;;;;4954459;28;20058;-73
2021/03/19 06:26:46;;;;;;;27.95;5.18;;;11.60;99.90;;;;;;4955857;28;20270;-75
2021/03/19 06:29:32;;;;;;;17.05;4.43;;;11.70;99.90;;;;;;4957158;28;20031;-73
2021/03/19 06:32:19;;;;;;;18.63;4.32;;;11.80;99.90;;;;;;4954811;28;20389;-75
2021/03/19 06:35:13;;;;;;;20.92;5.07;;;11.80;99.90;;;;;;4951660;28;20097;-75
2021/03/19 06:37:44;;;;;;;18.08;4.82;;;11.50;99.90;;;;;;5422352;23;20018;-75
2021/03/19 06:40:32;;;;;;;13.10;4.45;;;11.30;99.90;;;;;;4989846;28;20038;-73
2021/03/19 06:43:34;;;;;;;13.00;3.23;;;11.10;99.90;;;;;;4988901;28;20519;-74
2021/03/19 06:46:44;;;;;;;13.88;4.70;;;11.00;99.90;;;;;;4918228;29;20294;-74
2021/03/19 06:49:12;;;;;;;16.88;5.10;;;11.20;99.90;;;;;;4975649;28;20105;-75
2021/03/19 06:51:45;;;;;;;18.23;5.88;;;11.30;99.90;;;;;;4972805;28;20451;-74
2021/03/19 07:01:58;;;;;;;16.45;4.65;;;10.90;99.90;;;;;;5701317;23;20081;-73
2021/03/19 07:04:56;;;;;;;18.35;5.53;;;10.90;99.90;;;;;;4980176;28;20034;-72
2021/03/19 07:07:46;;;;;;;21.17;5.95;;;10.90;99.90;;;;;;4996368;28;20026;-70
2021/03/19 07:10:30;;;;;;;22.25;5.65;;;11.00;99.90;;;;;;5000547;28;20083;-62
2021/03/19 07:13:26;;;;;;;19.27;6.75;;;11.10;99.90;;;;;;4998176;28;20022;-68
2021/03/19 07:16:12;;;;;;;15.27;4.90;;;10.90;99.90;;;;;;4985886;28;20076;-69
2021/03/19 07:19:03;;;;;;;21.80;5.03;;;10.80;99.90;;;;;;4992801;28;20030;-69
2021/03/19 08:21:40;;;;;;;16.80;5.95;;;10.50;99.90;;;;;;4986264;28;20077;-71
2021/03/19 08:24:42;;;;;;;15.85;5.95;;;10.20;99.90;;;;;;4989406;28;20433;-70
2021/03/19 08:27:21;;;;;;;19.08;6.40;;;10.20;99.90;;;;;;4986190;28;20049;-70
2021/03/19 08:30:02;;;;;;;21.10;6.53;;;10.20;99.90;;;;;;4988716;28;20050;-71
2021/03/19 08:32:47;;;;;;;17.90;5.20;;;10.30;99.90;;;;;;4971039;28;22249;-71
2021/03/19 08:35:24;;;;;;;18.05;5.00;;;10.40;99.90;;;;;;4970238;28;20065;-70
2021/03/19 08:38:26;;;;;;;19.95;5.88;;;10.20;99.90;;;;;;4989459;28;20477;-71
2021/03/19 08:41:25;;;;;;;15.38;4.78;;;10.10;99.90;;;;;;4978126;28;20113;-70
2021/03/19 08:43:56;;;;;;;18.77;5.70;;;10.10;99.90;;;;;;4970640;28;20080;-71
2021/03/19 08:46:36;;;;;;;27.25;6.30;;;10.20;99.90;;;;;;4989448;28;20096;-71
2021/03/19 08:49:25;;;;;;;23.05;6.78;;;10.20;99.90;;;;;;4987369;28;20046;-71
2021/03/19 08:51:55;;;;;;;17.67;5.35;;;10.30;99.90;;;;;;4971130;28;20038;-70
2021/03/19 08:54:24;;;;;;;21.42;5.78;;;10.30;99.90;;;;;;4986603;28;20031;-70
2021/03/19 08:56:53;;;;;;;20.85;5.70;;;10.30;99.90;;;;;;4987378;28;20014;-70
2021/03/19 08:59:35;;;;;;;19.35;5.47;;;10.20;99.90;;;;;;4988103;28;20065;-70
2021/03/19 09:02:25;;;;;;;25.13;7.35;;;10.20;99.90;;;;;;4985620;28;20433;-71
2021/03/19 09:04:57;;;;;;;24.63;7.45;;;10.20;99.90;;;;;;4985501;28;20018;-71
2021/03/19 09:07:38;;;;;;;26.15;6.18;;;10.30;99.90;;;;;;4985007;28;20064;-70
2021/03/19 09:10:17;;;;;;;21.33;6.65;;;10.30;99.90;;;;;;4988780;28;20066;-71
2021/03/19 09:12:55;;;;;;;24.50;5.97;;;10.40;99.90;;;;;;4985331;28;20055;-71
2021/03/19 09:15:22;;;;;;;21.00;6.32;;;10.30;99.90;;;;;;4987137;28;20030;-70
2021/03/19 09:17:51;;;;;;;23.45;4.82;;;10.00;99.90;;;;;;4982334;28;20022;-71
2021/03/19 09:20:39;;;;;;;20.45;5.75;;;10.00;99.90;;;;;;4984367;28;20081;-71
2021/03/19 09:23:09;;;;;;;14.80;4.75;;;9.90;99.90;;;;;;4982959;28;20058;-70
2021/03/19 09:25:52;;;;;;;18.38;5.38;;;9.90;99.90;;;;;;4994228;28;20031;-71
2021/03/19 09:28:26;;;;;;;14.73;4.50;;;10.00;99.90;;;;;;4993575;28;20043;-71
2021/03/19 09:31:01;;;;;;;29.67;6.50;;;10.10;99.90;;;;;;4991627;28;20037;-71
2021/03/19 09:33:46;;;;;;;22.33;5.40;;;10.10;99.90;;;;;;4986517;28;20037;-71
2021/03/19 09:36:51;;;;;;;24.88;5.70;;;10.00;99.90;;;;;;4963872;28;20139;-70
2021/03/19 09:39:46;;;;;;;17.50;5.75;;;9.90;99.90;;;;;;4980830;28;20033;-70
2021/03/19 09:42:18;;;;;;;24.70;6.80;;;9.90;99.90;;;;;;4985855;28;20018;-71
2021/03/19 09:44:46;;;;;;;24.50;6.93;;;10.00;99.90;;;;;;4987593;28;20033;-71
2021/03/19 09:47:13;;;;;;;15.93;5.65;;;9.80;99.90;;;;;;4986998;28;20140;-71
2021/03/19 09:49:39;;;;;;;20.88;7.28;;;9.70;99.90;;;;;;4986172;28;20044;-70
2021/03/19 09:52:17;;;;;;;23.15;6.15;;;9.80;99.90;;;;;;4988125;28;20030;-70
2021/03/19 09:54:45;;;;;;;20.23;6.90;;;9.90;99.90;;;;;;4967462;28;20027;-71
2021/03/19 09:57:27;;;;;;;27.80;7.53;;;9.80;99.90;;;;;;4986295;28;20026;-70
2021/03/19 10:00:07;;;;;;;25.33;5.82;;;9.70;99.90;;;;;;4987807;28;20169;-71
2021/03/19 10:02:38;;;;;;;15.60;4.82;;;9.70;99.90;;;;;;4986590;28;20030;-70
2021/03/19 10:05:20;;;;;;;14.15;5.30;;;9.60;99.90;;;;;;4984497;28;20119;-70
2021/03/19 10:07:59;;;;;;;21.00;6.32;;;9.50;99.90;;;;;;4976124;28;20023;-71
2021/03/19 10:10:41;;;;;;;25.73;6.32;;;9.40;99.90;;;;;;4973108;28;20418;-70
2021/03/19 10:13:23;;;;;;;16.25;5.20;;;9.30;99.90;;;;;;4951256;28;20434;-71
2021/03/19 10:15:53;;;;;;;20.42;6.53;;;9.20;99.90;;;;;;4973158;28;20093;-70
2021/03/19 10:18:29;;;;;;;23.42;6.35;;;9.30;99.90;;;;;;4973546;28;20056;-71
2021/03/19 10:20:59;;;;;;;16.23;5.43;;;9.40;99.90;;;;;;4971583;28;20050;-71
2021/03/19 10:23:31;;;;;;;23.80;6.40;;;9.40;99.90;;;;;;4972452;28;20446;-71
2021/03/19 10:26:23;;;;;;;18.10;5.72;;;9.30;99.90;;;;;;4973571;28;20069;-70
2021/03/19 10:29:10;;;;;;;18.25;6.25;;;9.30;99.90;;;;;;4972978;28;20498;-71
2021/03/19 10:31:47;;;;;;;27.85;6.40;;;9.20;99.90;;;;;;4973683;28;20041;-71
2021/03/19 10:34:33;;;;;;;;;;;9.30;99.90;;;;;;4972010;28;20043;-70
2021/03/19 10:37:22;;;;;;;20.13;6.45;;;9.20;99.90;;;;;;4972193;28;19922;-71
2021/03/19 10:40:10;;;;;;;24.70;7.75;;;9.20;99.90;;;;;;4962277;28;20053;-71
2021/03/19 10:42:55;;;;;;;20.15;7.10;;;9.30;99.90;;;;;;4973041;28;20030;-71
2021/03/19 10:45:28;;;;;;;18.42;6.07;;;9.40;99.90;;;;;;4973125;28;20037;-71
2021/03/19 10:48:11;;;;;;;19.80;5.65;;;9.50;99.90;;;;;;4970913;28;20453;-71
2021/03/19 10:50:53;;;;;;;23.92;6.78;;;9.30;99.90;;;;;;4973192;28;20462;-71
2021/03/19 10:53:26;;;;;;;18.05;6.35;;;9.40;99.90;;;;;;4973202;28;20052;-71
2021/03/19 10:55:53;;;;;;;22.27;6.57;;;9.30;99.90;;;;;;4954595;28;20483;-71
2021/03/19 10:58:22;;;;;;;26.90;7.40;;;9.40;99.90;;;;;;4972510;28;21949;-70
2021/03/19 11:00:51;;;;;;;21.10;7.82;;;9.40;99.90;;;;;;4972132;28;20038;-71
2021/03/19 11:03:46;;;;;;;14.38;5.32;;;9.40;99.90;;;;;;4972876;28;20053;-70
2021/03/19 11:06:36;;;;;;;22.30;6.90;;;9.40;99.90;;;;;;4970057;28;20221;-70
2021/03/19 11:09:09;;;;;;;24.35;8.02;;;9.20;99.90;;;;;;4976315;28;20886;-71
2021/03/19 11:11:38;;;;;;;14.15;5.47;;;9.10;99.90;;;;;;4982415;28;20475;-71
2021/03/19 11:14:07;;;;;;;30.13;7.67;;;9.10;99.90;;;;;;4978661;28;20023;-71
2021/03/19 11:16:42;;;;;;;25.00;6.90;;;9.10;99.90;;;;;;4972619;28;20033;-72
2021/03/19 11:19:15;;;;;;;23.27;6.97;;;9.20;99.90;;;;;;4961091;28;20773;-71
2021/03/19 11:21:44;;;;;;;24.60;6.88;;;9.30;99.90;;;;;;4973768;28;20056;-71
2021/03/19 11:24:27;;;;;;;25.02;6.93;;;9.30;99.90;;;;;;4971091;28;20117;-71
2021/03/19 11:27:23;;;;;;;22.50;7.28;;;9.40;99.90;;;;;;4974869;28;20084;-71
2021/03/19 11:30:08;;;;;;;22.00;6.97;;;9.40;99.90;;;;;;4976113;28;20100;-71
2021/03/19 11:32:35;;;;;;;17.27;6.38;;;9.40;99.90;;;;;;4976317;28;20925;-71
2021/03/19 11:35:19;;;;;;;18.00;6.03;;;9.40;99.90;;;;;;4973668;28;20034;-70
2021/03/19 11:37:46;;;;;;;18.85;6.22;;;9.30;99.90;;;;;;4976420;28;20038;-71
2021/03/19 11:40:21;;;;;;;30.13;8.60;;;9.20;99.90;;;;;;4976942;28;20859;-71
2021/03/19 11:42:53;;;;;;;20.77;7.07;;;9.30;99.90;;;;;;4974999;28;20387;-70
2021/03/19 11:45:21;;;;;;;19.48;6.65;;;9.00;99.90;;;;;;4977137;28;20026;-69
2021/03/19 11:48:30;;;;;;;24.07;6.40;;;8.80;99.90;;;;;;4976591;28;20030;-70
2021/03/19 11:51:30;;;;;;;17.73;5.35;;;8.70;99.90;;;;;;4963112;28;20054;-70
2021/03/19 11:53:58;;;;;;;20.90;5.85;;;8.70;99.90;;;;;;4974640;28;20510;-70
2021/03/19 11:56:26;;;;;;;24.27;7.40;;;8.70;99.90;;;;;;4976672;28;20056;-70
2021/03/19 11:58:53;;;;;;;21.13;8.00;;;8.60;99.90;;;;;;4976245;28;20141;-70
2021/03/19 12:01:20;;;;;;;21.30;7.78;;;8.70;99.90;;;;;;4974429;28;20145;-70
2021/03/19 12:03:52;;;;;;;22.95;7.03;;;8.80;99.90;;;;;;4945372;28;20483;-70
2021/03/19 12:06:24;;;;;;;24.80;8.30;;;9.00;99.90;;;;;;4975038;28;20034;-70
2021/03/19 12:08:51;;;;;;;24.25;8.50;;;9.10;99.90;;;;;;4975612;28;20458;-70
2021/03/19 12:11:24;;;;;;;25.65;7.90;;;9.10;99.90;;;;;;4975181;28;20034;-70
2021/03/19 12:13:52;;;;;;;20.55;8.43;;;9.10;99.90;;;;;;4973749;28;20022;-70
2021/03/19 12:16:19;;;;;;;20.45;7.43;;;9.00;99.90;;;;;;4975835;28;20101;-70
2021/03/19 12:18:46;;;;;;;21.45;8.18;;;8.90;99.90;;;;;;4973896;28;20022;-71
2021/03/19 12:21:12;;;;;;;28.27;8.25;;;9.00;99.90;;;;;;4975445;28;20056;-70
2021/03/19 12:23:39;;;;;;;27.17;9.02;;;9.00;99.90;;;;;;4974355;28;20092;-69
2021/03/19 12:26:05;;;;;;;18.02;6.93;;;9.00;99.90;;;;;;4975535;28;20061;-70
2021/03/19 12:28:32;;;;;;;28.90;7.07;;;9.10;99.90;;;;;;4973745;28;20034;-69
2021/03/19 12:30:59;;;;;;;17.38;7.35;;;9.00;99.90;;;;;;4976773;28;20041;-70
2021/03/19 12:33:32;;;;;;;17.83;7.00;;;8.90;99.90;;;;;;4974262;28;20023;-70
2021/03/19 12:35:59;;;;;;;27.15;10.20;;;8.80;99.90;;;;;;4973518;28;20832;-70
2021/03/19 12:38:27;;;;;;;19.40;7.07;;;8.90;99.90;;;;;;4973653;28;20038;-70
2021/03/19 12:40:55;;;;;;;19.85;8.13;;;8.90;99.90;;;;;;4974712;28;20101;-70
2021/03/19 12:43:22;;;;;;;22.23;6.93;;;8.80;99.90;;;;;;4973610;28;20405;-70
2021/03/19 12:45:49;;;;;;;21.80;8.95;;;8.80;99.90;;;;;;4975004;28;20030;-71
2021/03/19 12:48:16;;;;;;;24.25;7.88;;;8.90;99.90;;;;;;4973506;28;20194;-71
2021/03/19 12:50:43;;;;;;;19.48;6.65;;;9.00;99.90;;;;;;4976097;28;20098;-70
2021/03/19 12:53:16;;;;;;;22.67;8.48;;;8.90;99.90;;;;;;4979441;28;20086;-70
2021/03/19 12:55:44;;;;;;;18.25;6.28;;;8.80;99.90;;;;;;4985616;28;20028;-70
2021/03/19 12:58:11;;;;;;;18.10;7.82;;;8.90;99.90;;;;;;4981798;28;20080;-71
2021/03/19 13:00:39;;;;;;;25.33;8.45;;;8.80;99.90;;;;;;4974002;28;20027;-70
2021/03/19 13:03:06;;;;;;;19.88;7.10;;;8.70;99.90;;;;;;4973771;28;20794;-70
2021/03/19 13:05:34;;;;;;;20.38;7.22;;;8.70;99.90;;;;;;4973625;28;20031;-70
2021/03/19 13:08:01;;;;;;;16.70;5.57;;;8.60;99.90;;;;;;4974334;28;20023;-70
2021/03/19 13:10:31;;;;;;;15.88;5.63;;;8.50;99.90;;;;;;4973932;28;20042;-71
2021/03/19 13:12:58;;;;;;;22.80;7.28;;;8.50;99.90;;;;;;4972926;28;20034;-70
2021/03/19 13:15:27;;;;;;;21.25;6.72;;;8.40;99.90;;;;;;4962447;28;20026;-70
2021/03/19 13:17:54;;;;;;;24.98;7.20;;;8.40;99.90;;;;;;4974697;28;20570;-71
2021/03/19 13:20:22;;;;;;;16.45;6.55;;;8.30;99.90;;;;;;4971737;28;20047;-71
2021/03/19 13:22:48;;;;;;;18.13;6.85;;;8.40;99.90;;;;;;4973485;28;20023;-71
2021/03/19 13:25:20;;;;;;;23.13;6.80;;;8.40;99.90;;;;;;4972410;28;20042;-70
2021/03/19 13:27:46;;;;;;;18.75;7.65;;;8.50;99.90;;;;;;4975184;28;20033;-70
2021/03/19 13:30:13;;;;;;;26.60;10.07;;;8.60;99.90;;;;;;4959230;28;20042;-70
2021/03/19 13:32:40;;;;;;;33.90;10.07;;;8.70;99.90;;;;;;4973185;28;20023;-70
2021/03/19 13:35:08;;;;;;;23.63;7.68;;;8.70;99.90;;;;;;4972595;28;20126;-71
2021/03/19 13:37:34;;;;;;;29.52;8.75;;;8.80;99.90;;;;;;4972862;28;20034;-70
2021/03/19 13:40:01;;;;;;;20.17;7.55;;;8.90;99.90;;;;;;4974268;28;20134;-71
2021/03/19 13:42:28;;;;;;;17.83;7.28;;;8.90;99.90;;;;;;4973288;28;20112;-70
2021/03/19 13:44:54;;;;;;;18.25;7.55;;;8.90;99.90;;;;;;4972274;28;20030;-70
2021/03/19 13:47:20;;;;;;;17.60;6.78;;;8.70;99.90;;;;;;4973687;28;20406;-71
2021/03/19 13:49:47;;;;;;;16.15;6.35;;;8.70;99.90;;;;;;4973795;28;20110;-71
2021/03/19 13:52:13;;;;;;;16.35;6.85;;;8.60;99.90;;;;;;4973356;28;20034;-71
2021/03/19 13:54:40;;;;;;;23.20;8.82;;;8.50;99.90;;;;;;4972741;28;20122;-71
2021/03/19 13:57:09;;;;;;;14.85;5.45;;;8.60;99.90;;;;;;4973390;28;20042;-71
2021/03/19 13:59:36;;;;;;;;;;;8.70;99.90;;;;;;4972413;28;20030;-72
2021/03/19 14:02:03;;;;;;;19.33;6.75;;;8.60;99.90;;;;;;4974472;28;19913;-71
2021/03/19 14:04:30;;;;;;;19.13;6.40;;;8.50;99.90;;;;;;4971288;28;20081;-71
2021/03/19 14:06:56;;;;;;;20.27;7.15;;;8.50;99.90;;;;;;4971240;28;20170;-71
2021/03/19 14:09:23;;;;;;;25.27;8.35;;;8.60;99.90;;;;;;4972978;28;20053;-72
2021/03/19 14:11:49;;;;;;;22.52;8.55;;;8.70;99.90;;;;;;4971190;28;20406;-71
2021/03/19 14:14:16;;;;;;;14.48;6.25;;;8.80;99.90;;;;;;4971861;28;20544;-71
2021/03/19 14:16:43;;;;;;;17.77;7.90;;;8.70;99.90;;;;;;4973415;28;20540;-70
2021/03/19 14:19:09;;;;;;;19.95;7.40;;;8.80;99.90;;;;;;4972000;28;21611;-70
2021/03/19 14:21:36;;;;;;;19.58;6.43;;;8.90;99.90;;;;;;4971823;28;20118;-71
2021/03/19 14:24:03;;;;;;;19.20;8.80;;;8.90;99.90;;;;;;4973933;28;20058;-71
2021/03/19 14:26:30;;;;;;;20.05;7.57;;;9.00;99.90;;;;;;4972602;28;20781;-72
2021/03/19 14:28:56;;;;;;;14.13;7.25;;;9.10;99.90;;;;;;4972351;28;21014;-72